Time;durP1;ratioP1;P1;durP2;ratioP2;P2;SDS_P1;SDS_P2;PMS_P1;PMS_P2;Temp;Humidity;BMP_temperature;BMP_pressure;BME280_temperature;BME280_humidity;BME280_pressure;Samples;Min_cycle;Max_cycle;Signal;HPM_P1;HPM_P2
2023/08/31 00:02:16;;;;;;;10.75;6.05;;;;;;;;;;5009078;28;20030;-85
2023/08/31 00:04:42;;;;;;;12.07;6.57;;;;;;;;;;5006563;28;20066;-84
2023/08/31 00:07:08;;;;;;;16.25;6.63;;;;;;;;;;4989807;28;20045;-84
2023/08/31 00:09:34;;;;;;;19.10;7.47;;;;;;;;;;4983276;28;20049;-83
2023/08/31 00:12:04;;;;;;;13.80;7.90;;;;;;;;;;4993336;28;20113;-83
2023/08/31 00:14:30;;;;;;;14.95;7.90;;;;;;;;;;4992294;28;21369;-83
2023/08/31 00:16:57;;;;;;;16.60;8.35;;;;;;;;;;4977489;28;20034;-84
2023/08/31 00:19:24;;;;;;;26.17;9.75;;;;;;;;;;4987562;28;20049;-83
2023/08/31 00:21:50;;;;;;;14.68;9.32;;;;;;;;;;4995575;28;20030;-84
2023/08/31 00:24:16;;;;;;;19.80;9.93;;;;;;;;;;4999687;28;20056;-82
2023/08/31 00:26:43;;;;;;;18.08;9.80;;;;;;;;;;4991018;28;20507;-85
2023/08/31 00:29:14;;;;;;;20.02;9.82;;;;;;;;;;4995863;28;20040;-83
2023/08/31 00:31:42;;;;;;;17.05;9.02;;;;;;;;;;4997288;28;20387;-83
2023/08/31 00:34:17;;;;;;;17.63;9.80;;;;;;;;;;4996957;28;20034;-85
2023/08/31 00:36:44;;;;;;;18.23;9.43;;;;;;;;;;4998975;28;20023;-85
2023/08/31 00:39:10;;;;;;;24.73;9.75;;;;;;;;;;4999640;28;20026;-84
2023/08/31 00:41:39;;;;;;;20.27;9.90;;;;;;;;;;4989571;28;20022;-83
2023/08/31 00:44:06;;;;;;;23.40;9.75;;;;;;;;;;4998931;28;20087;-83
2023/08/31 00:46:32;;;;;;;17.75;9.65;;;;;;;;;;4993945;28;20038;-85
2023/08/31 00:48:59;;;;;;;17.60;9.35;;;;;;;;;;4991382;28;20040;-81
2023/08/31 00:51:25;;;;;;;16.92;8.82;;;;;;;;;;4965471;28;20472;-80
2023/08/31 00:53:59;;;;;;;20.55;10.38;;;;;;;;;;4992628;28;20077;-80
2023/08/31 00:56:26;;;;;;;17.73;8.45;;;;;;;;;;4994477;28;20030;-81
2023/08/31 00:58:54;;;;;;;17.00;8.43;;;;;;;;;;4976346;28;20029;-77
2023/08/31 01:01:23;;;;;;;18.02;8.02;;;;;;;;;;5002433;28;20013;-78
2023/08/31 01:04:03;;;;;;;15.20;7.45;;;;;;;;;;4986147;28;20074;-78
2023/08/31 01:06:40;;;;;;;12.82;6.25;;;;;;;;;;5000629;28;20022;-80
2023/08/31 01:09:20;;;;;;;11.25;6.40;;;;;;;;;;4987396;28;20035;-80
2023/08/31 01:12:05;;;;;;;12.20;7.55;;;;;;;;;;5008509;28;20094;-80
2023/08/31 01:14:39;;;;;;;15.85;7.78;;;;;;;;;;4992058;28;20085;-84
2023/08/31 01:17:08;;;;;;;17.05;7.88;;;;;;;;;;4979580;28;20110;-82
2023/08/31 01:19:43;;;;;;;13.85;8.05;;;;;;;;;;4989857;28;20026;-85
2023/08/31 01:22:12;;;;;;;16.45;8.07;;;;;;;;;;4985834;28;20037;-80
2023/08/31 01:24:39;;;;;;;15.73;7.63;;;;;;;;;;4988147;28;20404;-79
2023/08/31 01:27:05;;;;;;;16.23;7.65;;;;;;;;;;4962109;28;20037;-79
2023/08/31 01:29:31;;;;;;;19.35;8.25;;;;;;;;;;4994430;28;20408;-87
2023/08/31 01:31:57;;;;;;;13.02;6.95;;;;;;;;;;4981126;28;20041;-78
2023/08/31 01:34:24;;;;;;;15.18;8.77;;;;;;;;;;4992767;28;20074;-81
2023/08/31 01:36:53;;;;;;;13.32;6.53;;;;;;;;;;4976460;28;20042;-79
2023/08/31 01:39:43;;;;;;;14.27;7.10;;;;;;;;;;4974288;28;20049;-79
2023/08/31 01:42:11;;;;;;;12.00;6.57;;;;;;;;;;4976751;28;20457;-81
2023/08/31 01:44:38;;;;;;;13.27;6.85;;;;;;;;;;4988543;28;20030;-80
2023/08/31 01:47:06;;;;;;;13.10;6.53;;;;;;;;;;4986820;28;20041;-81
2023/08/31 01:49:38;;;;;;;15.43;6.15;;;;;;;;;;4978713;28;20030;-80
2023/08/31 01:52:05;;;;;;;9.65;6.45;;;;;;;;;;4986240;28;20039;-81
2023/08/31 01:54:31;;;;;;;14.52;6.40;;;;;;;;;;4953805;28;20049;-80
2023/08/31 01:56:59;;;;;;;11.35;6.88;;;;;;;;;;4968924;28;20053;-80
2023/08/31 01:59:27;;;;;;;12.70;6.97;;;;;;;;;;5001244;28;20065;-81
2023/08/31 02:01:53;;;;;;;13.32;6.88;;;;;;;;;;4986553;28;20037;-79
2023/08/31 02:04:19;;;;;;;11.30;6.65;;;;;;;;;;5008783;28;20034;-79
2023/08/31 02:06:45;;;;;;;11.60;6.72;;;;;;;;;;4987644;28;20037;-79
2023/08/31 02:09:11;;;;;;;11.60;6.20;;;;;;;;;;4991146;28;20489;-78
2023/08/31 02:11:38;;;;;;;11.70;6.75;;;;;;;;;;5009517;28;20373;-78
2023/08/31 02:14:05;;;;;;;14.93;6.75;;;;;;;;;;4986564;28;20034;-78
2023/08/31 02:16:31;;;;;;;14.30;5.95;;;;;;;;;;5001923;28;20030;-77
2023/08/31 02:18:59;;;;;;;9.55;5.63;;;;;;;;;;4984773;28;20037;-79
2023/08/31 02:21:25;;;;;;;9.30;5.15;;;;;;;;;;5000946;28;20018;-79
2023/08/31 02:23:52;;;;;;;12.05;5.70;;;;;;;;;;4987661;28;20173;-80
2023/08/31 02:26:19;;;;;;;7.07;5.10;;;;;;;;;;4989594;28;20027;-79
2023/08/31 02:28:46;;;;;;;9.35;5.63;;;;;;;;;;4989788;28;20030;-81
2023/08/31 02:31:14;;;;;;;13.32;5.22;;;;;;;;;;5008025;28;20087;-81
2023/08/31 02:33:40;;;;;;;7.35;4.53;;;;;;;;;;5000328;28;20089;-81
2023/08/31 02:36:06;;;;;;;11.27;4.47;;;;;;;;;;5000335;28;20037;-80
2023/08/31 02:38:33;;;;;;;8.32;4.07;;;;;;;;;;4979438;28;20034;-82
2023/08/31 02:41:00;;;;;;;9.98;4.25;;;;;;;;;;4967586;28;20042;-81
2023/08/31 02:43:26;;;;;;;13.00;4.80;;;;;;;;;;4991019;28;20165;-79
2023/08/31 02:46:11;;;;;;;8.63;3.90;;;;;;;;;;4981636;28;20030;-79
2023/08/31 02:48:37;;;;;;;7.28;3.40;;;;;;;;;;5009418;28;20027;-80
2023/08/31 02:51:03;;;;;;;6.88;3.40;;;;;;;;;;4984406;28;20036;-80
2023/08/31 02:53:30;;;;;;;9.15;3.88;;;;;;;;;;4974909;28;20034;-88
2023/08/31 02:55:56;;;;;;;6.63;3.75;;;;;;;;;;4981013;28;20034;-80
2023/08/31 02:58:22;;;;;;;5.90;3.30;;;;;;;;;;4965744;28;20037;-80
2023/08/31 03:00:48;;;;;;;4.95;3.22;;;;;;;;;;4971230;28;20046;-83
2023/08/31 03:03:16;;;;;;;6.57;3.30;;;;;;;;;;4968064;28;20038;-83
2023/08/31 03:05:44;;;;;;;9.77;3.20;;;;;;;;;;4976446;28;20046;-83
2023/08/31 03:08:10;;;;;;;5.00;3.30;;;;;;;;;;4992028;28;20047;-82
2023/08/31 03:10:37;;;;;;;5.88;3.17;;;;;;;;;;4984590;28;20026;-82
2023/08/31 03:13:04;;;;;;;6.25;3.05;;;;;;;;;;4977200;28;20078;-81
2023/08/31 03:15:30;;;;;;;9.25;4.10;;;;;;;;;;4982541;28;20117;-82
2023/08/31 03:17:57;;;;;;;6.50;3.50;;;;;;;;;;4982403;28;20026;-78
2023/08/31 03:20:23;;;;;;;7.60;3.80;;;;;;;;;;5008468;28;20071;-80
2023/08/31 03:22:50;;;;;;;6.78;3.78;;;;;;;;;;4997447;28;20396;-81
2023/08/31 03:25:17;;;;;;;7.63;4.25;;;;;;;;;;4988448;28;20034;-80
2023/08/31 03:27:43;;;;;;;28.38;6.07;;;;;;;;;;4984418;28;20038;-78
2023/08/31 03:30:10;;;;;;;11.32;6.75;;;;;;;;;;5009650;28;20018;-83
2023/08/31 03:32:36;;;;;;;17.65;7.55;;;;;;;;;;5007437;28;20046;-84
2023/08/31 03:35:07;;;;;;;13.73;7.90;;;;;;;;;;4997526;28;20069;-83
2023/08/31 03:37:33;;;;;;;16.85;8.95;;;;;;;;;;5018539;28;20018;-86
2023/08/31 03:39:59;;;;;;;18.00;9.48;;;;;;;;;;5012381;28;20094;-83
2023/08/31 03:42:26;;;;;;;17.02;8.90;;;;;;;;;;4969236;28;20465;-82
2023/08/31 03:44:52;;;;;;;19.25;11.15;;;;;;;;;;4991958;28;20038;-83
2023/08/31 03:47:18;;;;;;;23.30;11.85;;;;;;;;;;4972717;28;20202;-85
2023/08/31 03:49:44;;;;;;;27.35;12.45;;;;;;;;;;4972124;28;20037;-82
2023/08/31 03:52:10;;;;;;;19.45;12.27;;;;;;;;;;4987196;28;20026;-82
2023/08/31 03:54:36;;;;;;;25.75;13.63;;;;;;;;;;4975316;28;20026;-84
2023/08/31 03:57:02;;;;;;;29.67;14.85;;;;;;;;;;4967599;28;20030;-85
2023/08/31 03:59:29;;;;;;;23.98;15.38;;;;;;;;;;4963166;28;20033;-84
2023/08/31 04:01:55;;;;;;;22.80;14.45;;;;;;;;;;4992196;28;20061;-83
2023/08/31 04:04:21;;;;;;;31.27;15.38;;;;;;;;;;4975848;28;20575;-85
2023/08/31 04:06:47;;;;;;;28.30;15.18;;;;;;;;;;4991781;28;20030;-84
2023/08/31 04:09:13;;;;;;;21.50;12.40;;;;;;;;;;4981366;28;20050;-86
2023/08/31 04:11:39;;;;;;;18.20;10.55;;;;;;;;;;4970154;28;20053;-83
2023/08/31 04:14:05;;;;;;;18.75;10.43;;;;;;;;;;4970522;28;20039;-86
2023/08/31 04:16:32;;;;;;;21.75;11.02;;;;;;;;;;5016618;28;20050;-86
2023/08/31 04:18:59;;;;;;;20.80;11.00;;;;;;;;;;5006382;28;20045;-85
2023/08/31 04:21:25;;;;;;;19.45;11.35;;;;;;;;;;5014477;28;20109;-84
2023/08/31 04:23:51;;;;;;;19.27;10.63;;;;;;;;;;4997792;28;20101;-86
2023/08/31 04:26:17;;;;;;;25.38;10.98;;;;;;;;;;4993382;28;20066;-85
2023/08/31 04:28:44;;;;;;;22.23;9.55;;;;;;;;;;5003607;28;20030;-84
2023/08/31 04:31:10;;;;;;;19.25;8.73;;;;;;;;;;4965923;28;20054;-85
2023/08/31 04:33:37;;;;;;;21.88;8.73;;;;;;;;;;5000997;28;20045;-83
2023/08/31 04:36:04;;;;;;;20.13;9.10;;;;;;;;;;4999029;28;20034;-81
2023/08/31 04:38:31;;;;;;;14.00;6.30;;;;;;;;;;5001949;28;20022;-81
2023/08/31 04:41:01;;;;;;;13.05;5.30;;;;;;;;;;5003962;28;20084;-82
2023/08/31 04:43:27;;;;;;;18.17;4.75;;;;;;;;;;4976422;28;20432;-80
2023/08/31 04:45:53;;;;;;;12.98;4.38;;;;;;;;;;4995035;28;20034;-80
2023/08/31 04:48:20;;;;;;;9.82;4.45;;;;;;;;;;4998740;28;20026;-80
2023/08/31 04:50:46;;;;;;;14.48;4.88;;;;;;;;;;4993744;28;20062;-81
2023/08/31 04:53:13;;;;;;;11.27;5.28;;;;;;;;;;4978487;28;20056;-81
2023/08/31 04:55:39;;;;;;;21.45;5.80;;;;;;;;;;4990783;28;20042;-82
2023/08/31 04:58:06;;;;;;;13.43;5.18;;;;;;;;;;4995870;28;20037;-81
2023/08/31 05:00:33;;;;;;;18.02;6.28;;;;;;;;;;4992446;28;20069;-81
2023/08/31 05:02:59;;;;;;;10.15;4.50;;;;;;;;;;4998416;28;20036;-80
2023/08/31 05:05:25;;;;;;;12.10;4.95;;;;;;;;;;4996806;28;20030;-80
2023/08/31 05:07:51;;;;;;;13.77;5.60;;;;;;;;;;4978183;28;20031;-80
2023/08/31 05:10:18;;;;;;;11.07;4.88;;;;;;;;;;4974995;28;20065;-80
2023/08/31 05:12:44;;;;;;;13.30;4.68;;;;;;;;;;4996636;28;20031;-79
2023/08/31 05:15:10;;;;;;;15.45;4.22;;;;;;;;;;4977969;28;20038;-82
2023/08/31 05:17:37;;;;;;;9.35;3.75;;;;;;;;;;4937050;28;20030;-79
2023/08/31 05:20:04;;;;;;;15.07;4.32;;;;;;;;;;4985906;28;20105;-79
2023/08/31 05:22:30;;;;;;;14.65;4.18;;;;;;;;;;4995105;28;20092;-80
2023/08/31 05:24:57;;;;;;;10.73;4.07;;;;;;;;;;4959460;28;20046;-80
2023/08/31 05:27:23;;;;;;;13.82;4.15;;;;;;;;;;4992580;28;20058;-79
2023/08/31 05:29:49;;;;;;;14.38;4.72;;;;;;;;;;4978403;28;20085;-80
2023/08/31 05:32:15;;;;;;;9.60;4.35;;;;;;;;;;4987852;28;20026;-80
2023/08/31 05:34:41;;;;;;;11.48;4.00;;;;;;;;;;4974795;28;20031;-78
2023/08/31 05:37:07;;;;;;;16.98;3.72;;;;;;;;;;5009284;28;20037;-80
2023/08/31 05:39:35;;;;;;;15.23;4.13;;;;;;;;;;4996933;28;20089;-79
2023/08/31 05:42:01;;;;;;;16.75;4.75;;;;;;;;;;4983294;28;20038;-79
2023/08/31 05:44:27;;;;;;;13.48;5.18;;;;;;;;;;4982526;28;20045;-80
2023/08/31 05:46:53;;;;;;;13.35;4.25;;;;;;;;;;4990622;28;20042;-79
2023/08/31 05:49:20;;;;;;;12.75;3.63;;;;;;;;;;4999376;28;20448;-80
2023/08/31 05:51:46;;;;;;;13.07;4.07;;;;;;;;;;4985393;28;20039;-81
2023/08/31 05:54:13;;;;;;;16.42;4.15;;;;;;;;;;4987514;28;20033;-79
2023/08/31 05:56:40;;;;;;;18.15;4.43;;;;;;;;;;4980880;28;20117;-79
2023/08/31 05:59:09;;;;;;;13.98;4.40;;;;;;;;;;4989033;28;20064;-79
2023/08/31 06:01:36;;;;;;;20.20;4.18;;;;;;;;;;4986998;28;20085;-81
2023/08/31 06:04:03;;;;;;;10.88;4.38;;;;;;;;;;4993671;28;20045;-80
2023/08/31 06:06:29;;;;;;;15.07;5.57;;;;;;;;;;4993188;28;20045;-78
2023/08/31 06:08:56;;;;;;;17.33;6.15;;;;;;;;;;4981106;28;20250;-79
2023/08/31 06:11:22;;;;;;;16.30;7.15;;;;;;;;;;4985900;28;20046;-79
2023/08/31 06:13:49;;;;;;;23.60;7.53;;;;;;;;;;4981841;28;20089;-79
2023/08/31 06:16:15;;;;;;;22.20;6.45;;;;;;;;;;4971296;28;20038;-80
2023/08/31 06:18:41;;;;;;;13.43;4.97;;;;;;;;;;4982980;28;20438;-84
2023/08/31 06:21:07;;;;;;;11.18;4.80;;;;;;;;;;4990517;28;20460;-83
2023/08/31 06:23:33;;;;;;;25.23;5.50;;;;;;;;;;4951609;28;20037;-87
2023/08/31 06:25:59;;;;;;;19.95;4.40;;;;;;;;;;4970779;28;20037;-82
2023/08/31 06:28:26;;;;;;;15.88;5.85;;;;;;;;;;4974171;28;20039;-82
2023/08/31 06:30:52;;;;;;;12.82;5.35;;;;;;;;;;4990757;28;20053;-84
2023/08/31 06:33:19;;;;;;;17.20;4.22;;;;;;;;;;4970479;28;20033;-81
2023/08/31 06:35:51;;;;;;;15.07;4.28;;;;;;;;;;4970974;28;20113;-81
2023/08/31 06:38:18;;;;;;;13.48;5.18;;;;;;;;;;4979886;28;20049;-81
2023/08/31 06:40:44;;;;;;;21.23;6.30;;;;;;;;;;4992632;28;20034;-82
2023/08/31 06:43:11;;;;;;;20.67;6.80;;;;;;;;;;4995654;28;20472;-80
2023/08/31 06:45:56;;;;;;;17.38;6.35;;;;;;;;;;4982169;28;20241;-83
2023/08/31 06:48:23;;;;;;;18.08;5.53;;;;;;;;;;4993393;28;20118;-79
2023/08/31 06:50:49;;;;;;;20.08;5.60;;;;;;;;;;4978611;28;20362;-79
2023/08/31 06:53:16;;;;;;;13.35;4.07;;;;;;;;;;5014275;28;20037;-81
2023/08/31 06:55:42;;;;;;;10.15;2.97;;;;;;;;;;5002774;28;20030;-81
2023/08/31 06:58:09;;;;;;;7.57;2.60;;;;;;;;;;4993728;28;20061;-80
2023/08/31 07:00:36;;;;;;;14.93;2.90;;;;;;;;;;4984910;28;20038;-81
2023/08/31 07:03:03;;;;;;;12.48;3.55;;;;;;;;;;4983183;28;20175;-81
2023/08/31 07:05:35;;;;;;;18.73;3.72;;;;;;;;;;4989893;28;20037;-79
2023/08/31 07:08:02;;;;;;;18.55;3.55;;;;;;;;;;4972934;28;20029;-80
2023/08/31 07:10:28;;;;;;;15.48;4.03;;;;;;;;;;4973206;28;20029;-80
2023/08/31 07:12:55;;;;;;;13.18;3.40;;;;;;;;;;4967405;28;20027;-80
2023/08/31 07:15:21;;;;;;;12.48;3.92;;;;;;;;;;4988026;28;20042;-79
2023/08/31 07:17:47;;;;;;;18.98;4.57;;;;;;;;;;4971838;28;20043;-81
2023/08/31 07:20:13;;;;;;;14.95;3.60;;;;;;;;;;4973869;28;20038;-81
2023/08/31 07:22:59;;;;;;;15.55;3.38;;;;;;;;;;4975967;28;20335;-79
2023/08/31 07:25:25;;;;;;;14.00;3.45;;;;;;;;;;4968819;28;20053;-80
2023/08/31 07:27:52;;;;;;;12.88;3.60;;;;;;;;;;4973258;28;20026;-81
2023/08/31 07:30:18;;;;;;;14.70;3.15;;;;;;;;;;4976390;28;20089;-81
2023/08/31 07:32:44;;;;;;;16.73;3.75;;;;;;;;;;4969508;28;20035;-83
2023/08/31 07:38:27;;;;;;;14.90;4.50;;;;;;;;;;4974613;28;20041;-82
2023/08/31 07:40:56;;;;;;;9.68;3.47;;;;;;;;;;4979449;28;20102;-83
2023/08/31 07:43:40;;;;;;;19.00;3.72;;;;;;;;;;4974362;28;20252;-82
2023/08/31 07:46:07;;;;;;;9.90;3.90;;;;;;;;;;4988987;28;20034;-86
2023/08/31 07:48:52;;;;;;;13.57;3.65;;;;;;;;;;4978473;28;20042;-87
2023/08/31 07:51:23;;;;;;;18.45;5.65;;;;;;;;;;4976587;28;20035;-82
2023/08/31 07:53:49;;;;;;;15.07;4.93;;;;;;;;;;4998444;28;20032;-81
2023/08/31 07:56:15;;;;;;;12.70;4.90;;;;;;;;;;4994484;28;20065;-85
2023/08/31 07:58:42;;;;;;;14.32;4.93;;;;;;;;;;4993899;28;20026;-82
2023/08/31 08:01:08;;;;;;;13.63;4.95;;;;;;;;;;4989450;28;20041;-82
2023/08/31 08:03:34;;;;;;;16.05;4.70;;;;;;;;;;4999610;28;20081;-81
2023/08/31 08:06:00;;;;;;;9.98;4.15;;;;;;;;;;4997325;28;20038;-80
2023/08/31 08:08:26;;;;;;;15.68;4.28;;;;;;;;;;5011703;28;20046;-83
2023/08/31 08:10:53;;;;;;;13.32;3.80;;;;;;;;;;4997636;28;20041;-83
2023/08/31 08:13:19;;;;;;;9.85;3.72;;;;;;;;;;5001611;28;20057;-82
2023/08/31 08:15:46;;;;;;;14.10;4.15;;;;;;;;;;4993015;28;20050;-81
2023/08/31 08:18:12;;;;;;;12.43;4.93;;;;;;;;;;4986381;28;20109;-78
2023/08/31 08:20:38;;;;;;;17.00;4.20;;;;;;;;;;4975518;28;20134;-78
2023/08/31 08:23:05;;;;;;;12.57;3.92;;;;;;;;;;4989182;28;20104;-79
2023/08/31 08:25:31;;;;;;;12.30;5.13;;;;;;;;;;4991986;28;20125;-78
2023/08/31 08:27:58;;;;;;;10.80;3.85;;;;;;;;;;4993785;28;20038;-78
2023/08/31 08:30:24;;;;;;;12.60;3.83;;;;;;;;;;4993182;28;20045;-78
2023/08/31 08:32:50;;;;;;;14.60;5.40;;;;;;;;;;4976840;28;20117;-77
2023/08/31 08:35:16;;;;;;;10.30;4.30;;;;;;;;;;4993217;28;20060;-78
2023/08/31 08:37:42;;;;;;;10.57;3.63;;;;;;;;;;4974265;28;20034;-80
2023/08/31 08:40:10;;;;;;;9.88;3.60;;;;;;;;;;4975711;28;20104;-78
2023/08/31 08:42:41;;;;;;;11.55;3.08;;;;;;;;;;4993388;28;20038;-77
2023/08/31 08:45:25;;;;;;;14.93;2.85;;;;;;;;;;4999206;28;20078;-79
2023/08/31 08:47:52;;;;;;;11.65;2.42;;;;;;;;;;4992134;28;20027;-78
2023/08/31 08:50:21;;;;;;;9.07;2.75;;;;;;;;;;4986894;28;20018;-77
2023/08/31 08:52:47;;;;;;;8.27;2.20;;;;;;;;;;4989703;28;20085;-78
2023/08/31 08:55:14;;;;;;;9.45;2.10;;;;;;;;;;4993758;28;20035;-78
2023/08/31 08:57:40;;;;;;;8.63;2.30;;;;;;;;;;4993008;28;20038;-79
2023/08/31 09:00:07;;;;;;;6.32;1.73;;;;;;;;;;4993068;28;20080;-79
2023/08/31 09:02:33;;;;;;;9.75;1.60;;;;;;;;;;4994027;28;20045;-78
2023/08/31 09:04:59;;;;;;;7.63;1.58;;;;;;;;;;4994320;28;20053;-76
2023/08/31 09:07:26;;;;;;;5.72;1.70;;;;;;;;;;4993219;28;20047;-78
2023/08/31 09:09:53;;;;;;;9.05;2.20;;;;;;;;;;4996553;28;20502;-79
2023/08/31 09:12:21;;;;;;;6.60;1.67;;;;;;;;;;4999457;28;20105;-79
2023/08/31 09:15:04;;;;;;;9.48;2.13;;;;;;;;;;4996667;28;20034;-78
2023/08/31 09:17:45;;;;;;;11.43;1.70;;;;;;;;;;4998884;28;20039;-78
2023/08/31 09:20:12;;;;;;;11.02;1.80;;;;;;;;;;4996221;28;20034;-77
2023/08/31 09:22:43;;;;;;;12.73;1.80;;;;;;;;;;4993066;28;20059;-76
2023/08/31 09:25:09;;;;;;;11.65;1.80;;;;;;;;;;4993422;28;20034;-77
2023/08/31 09:27:38;;;;;;;9.60;2.08;;;;;;;;;;4993327;28;20487;-77
2023/08/31 09:30:06;;;;;;;7.85;1.52;;;;;;;;;;4982451;28;20586;-77
2023/08/31 09:32:32;;;;;;;9.30;1.92;;;;;;;;;;4956322;28;20034;-76
2023/08/31 09:35:02;;;;;;;7.72;1.85;;;;;;;;;;4972349;28;20097;-77
2023/08/31 09:37:29;;;;;;;7.20;1.55;;;;;;;;;;4972507;28;20038;-77
2023/08/31 09:39:56;;;;;;;6.75;1.80;;;;;;;;;;4988784;28;20089;-78
2023/08/31 09:42:22;;;;;;;9.43;2.40;;;;;;;;;;4993007;28;20031;-78
2023/08/31 09:44:50;;;;;;;8.88;1.67;;;;;;;;;;4988886;28;20039;-77
2023/08/31 09:47:18;;;;;;;5.93;1.50;;;;;;;;;;4990125;28;20057;-75
2023/08/31 09:49:44;;;;;;;10.07;1.52;;;;;;;;;;4974304;28;20106;-76
2023/08/31 09:52:11;;;;;;;5.20;1.35;;;;;;;;;;4992262;28;20022;-78
2023/08/31 09:54:38;;;;;;;11.93;1.67;;;;;;;;;;4990278;28;20030;-76
2023/08/31 09:57:05;;;;;;;4.95;1.10;;;;;;;;;;4991856;28;20030;-77
2023/08/31 09:59:33;;;;;;;8.13;1.48;;;;;;;;;;4990820;28;20114;-77
2023/08/31 10:02:01;;;;;;;4.05;1.33;;;;;;;;;;4980076;28;20054;-77
2023/08/31 10:04:27;;;;;;;7.97;1.75;;;;;;;;;;4980025;28;20042;-77
2023/08/31 10:06:54;;;;;;;11.07;1.50;;;;;;;;;;4969245;28;20074;-79
2023/08/31 10:09:20;;;;;;;6.18;1.58;;;;;;;;;;4970809;28;20059;-78
2023/08/31 10:11:47;;;;;;;5.05;1.25;;;;;;;;;;4970425;28;20035;-77
2023/08/31 10:14:13;;;;;;;5.00;1.45;;;;;;;;;;4970813;28;20140;-76
2023/08/31 10:16:40;;;;;;;5.60;1.30;;;;;;;;;;4972231;28;20034;-76
2023/08/31 10:19:06;;;;;;;5.15;1.40;;;;;;;;;;4974504;28;20076;-77
2023/08/31 10:21:34;;;;;;;6.10;1.08;;;;;;;;;;4990125;28;20483;-77
2023/08/31 10:24:00;;;;;;;5.03;1.10;;;;;;;;;;4991211;28;20036;-79
2023/08/31 10:26:27;;;;;;;5.13;1.40;;;;;;;;;;4989853;28;20046;-78
2023/08/31 10:28:54;;;;;;;5.90;1.25;;;;;;;;;;4974740;28;20023;-77
2023/08/31 10:31:22;;;;;;;16.10;1.83;;;;;;;;;;4972567;28;20117;-78
2023/08/31 10:33:57;;;;;;;6.25;1.20;;;;;;;;;;4972455;28;20042;-78
2023/08/31 10:36:34;;;;;;;3.53;0.80;;;;;;;;;;4979804;28;20051;-78
2023/08/31 10:39:02;;;;;;;4.60;1.20;;;;;;;;;;4989367;28;20038;-76
2023/08/31 10:41:35;;;;;;;5.18;1.05;;;;;;;;;;4991507;28;20035;-78
2023/08/31 10:44:01;;;;;;;6.35;0.90;;;;;;;;;;4986992;28;20041;-76
2023/08/31 10:46:29;;;;;;;3.95;1.10;;;;;;;;;;4985398;28;20053;-78
2023/08/31 10:48:55;;;;;;;4.97;1.20;;;;;;;;;;4994276;28;20040;-76
2023/08/31 10:51:30;;;;;;;3.47;1.00;;;;;;;;;;4982291;28;20022;-78
2023/08/31 10:54:05;;;;;;;5.57;1.48;;;;;;;;;;4992936;28;20068;-77
2023/08/31 10:56:32;;;;;;;4.93;1.30;;;;;;;;;;4979940;28;20519;-77
2023/08/31 10:58:58;;;;;;;4.03;1.00;;;;;;;;;;4989867;28;20137;-77
2023/08/31 11:01:43;;;;;;;2.70;1.00;;;;;;;;;;4978393;28;20033;-77
2023/08/31 11:04:13;;;;;;;7.70;1.23;;;;;;;;;;4985980;28;20034;-76
2023/08/31 11:06:40;;;;;;;;;;;;;;;;;;4995698;28;20041;-77
2023/08/31 11:09:06;;;;;;;3.85;1.10;;;;;;;;;;4980410;28;19928;-78
2023/08/31 11:11:39;;;;;;;3.83;1.05;;;;;;;;;;4953277;28;20058;-76
2023/08/31 11:14:05;;;;;;;3.53;1.00;;;;;;;;;;4986103;28;20022;-76
2023/08/31 11:16:31;;;;;;;3.05;0.90;;;;;;;;;;4975437;28;20042;-78
2023/08/31 11:18:57;;;;;;;4.10;1.25;;;;;;;;;;4971825;28;20085;-77
2023/08/31 11:21:24;;;;;;;5.07;1.13;;;;;;;;;;4973824;28;20041;-77
2023/08/31 11:23:52;;;;;;;4.50;0.90;;;;;;;;;;4992378;28;20105;-78
2023/08/31 11:26:19;;;;;;;3.92;1.02;;;;;;;;;;4968408;28;20038;-80
2023/08/31 11:28:46;;;;;;;3.83;1.00;;;;;;;;;;4978662;28;20090;-79
2023/08/31 11:31:12;;;;;;;3.13;0.95;;;;;;;;;;4998476;28;20061;-78
2023/08/31 11:33:38;;;;;;;8.00;0.95;;;;;;;;;;5004149;28;20034;-78
2023/08/31 11:36:05;;;;;;;4.30;1.33;;;;;;;;;;4980547;28;20094;-80
2023/08/31 11:38:32;;;;;;;4.68;1.00;;;;;;;;;;4972766;28;20034;-79
2023/08/31 11:40:59;;;;;;;3.25;0.93;;;;;;;;;;4995462;28;20038;-80
2023/08/31 11:43:25;;;;;;;4.40;1.10;;;;;;;;;;4986843;28;20038;-78
2023/08/31 11:45:52;;;;;;;4.15;1.02;;;;;;;;;;4979343;28;20118;-78
2023/08/31 11:48:18;;;;;;;5.40;1.10;;;;;;;;;;4994558;28;20629;-78
2023/08/31 11:50:44;;;;;;;4.53;1.13;;;;;;;;;;4987867;28;20033;-78
2023/08/31 11:53:11;;;;;;;4.22;1.10;;;;;;;;;;4982165;28;20110;-78
2023/08/31 11:55:37;;;;;;;3.08;1.02;;;;;;;;;;4968200;28;20472;-77
2023/08/31 11:58:03;;;;;;;9.52;1.08;;;;;;;;;;4990422;28;20034;-78
2023/08/31 12:00:30;;;;;;;3.70;1.00;;;;;;;;;;4981901;28;20073;-80
2023/08/31 12:02:57;;;;;;;3.50;1.20;;;;;;;;;;4985978;28;20073;-80
2023/08/31 12:05:23;;;;;;;7.72;1.63;;;;;;;;;;4974184;28;20074;-78
2023/08/31 12:07:51;;;;;;;8.25;1.60;;;;;;;;;;4977717;28;20057;-78
2023/08/31 12:10:17;;;;;;;4.90;1.17;;;;;;;;;;4967253;28;20041;-78
2023/08/31 12:12:43;;;;;;;5.93;1.30;;;;;;;;;;4965279;28;20027;-79
2023/08/31 12:15:11;;;;;;;5.47;1.30;;;;;;;;;;4967950;28;20049;-78
2023/08/31 12:17:39;;;;;;;3.80;1.35;;;;;;;;;;4960808;28;20030;-81
2023/08/31 12:20:06;;;;;;;7.35;1.23;;;;;;;;;;4962728;28;20093;-81
2023/08/31 12:22:33;;;;;;;13.93;1.25;;;;;;;;;;4966919;28;20038;-80
2023/08/31 12:24:59;;;;;;;4.20;1.00;;;;;;;;;;4966531;28;20043;-78
2023/08/31 12:27:26;;;;;;;5.18;1.42;;;;;;;;;;4960306;28;20039;-78
2023/08/31 12:29:52;;;;;;;7.57;1.55;;;;;;;;;;4961376;28;20110;-79
2023/08/31 12:32:18;;;;;;;4.28;1.30;;;;;;;;;;4966595;28;20106;-80
2023/08/31 12:34:44;;;;;;;5.05;1.08;;;;;;;;;;4965581;28;20191;-78
2023/08/31 12:37:11;;;;;;;3.78;1.10;;;;;;;;;;4961979;28;20199;-79
2023/08/31 12:39:38;;;;;;;3.53;1.10;;;;;;;;;;4962755;28;20046;-80
2023/08/31 12:42:05;;;;;;;4.68;1.25;;;;;;;;;;4970884;28;20026;-78
2023/08/31 12:44:31;;;;;;;3.67;1.45;;;;;;;;;;4987126;28;20023;-78
2023/08/31 12:46:57;;;;;;;3.33;1.08;;;;;;;;;;4969849;28;20034;-79
2023/08/31 12:49:23;;;;;;;6.35;1.45;;;;;;;;;;4969955;28;20142;-78
2023/08/31 12:51:52;;;;;;;7.32;1.45;;;;;;;;;;4970498;28;20042;-78
2023/08/31 12:54:19;;;;;;;6.10;1.60;;;;;;;;;;4966459;28;20031;-79
2023/08/31 12:56:45;;;;;;;6.10;1.58;;;;;;;;;;4967198;28;20030;-77
2023/08/31 12:59:11;;;;;;;6.45;1.60;;;;;;;;;;4968490;28;20031;-77
2023/08/31 13:01:38;;;;;;;3.47;1.20;;;;;;;;;;4968224;28;20342;-78
2023/08/31 13:04:06;;;;;;;3.70;1.08;;;;;;;;;;4975295;28;20035;-78
2023/08/31 13:06:32;;;;;;;5.63;1.42;;;;;;;;;;4968078;28;20126;-78
2023/08/31 13:08:58;;;;;;;4.55;1.35;;;;;;;;;;4971709;28;20141;-77
2023/08/31 13:11:24;;;;;;;4.05;1.23;;;;;;;;;;4970835;28;20027;-79
2023/08/31 13:13:51;;;;;;;5.78;1.27;;;;;;;;;;4972554;28;20094;-78
2023/08/31 13:16:18;;;;;;;6.90;2.00;;;;;;;;;;4969470;28;20047;-78
2023/08/31 13:18:44;;;;;;;4.95;1.48;;;;;;;;;;4971821;28;20061;-79
2023/08/31 13:21:10;;;;;;;4.07;1.45;;;;;;;;;;4971565;28;20045;-77
2023/08/31 13:23:36;;;;;;;5.70;1.10;;;;;;;;;;4969602;28;20121;-80
2023/08/31 13:26:02;;;;;;;4.68;1.40;;;;;;;;;;4971969;28;20027;-77
2023/08/31 13:28:29;;;;;;;5.43;1.30;;;;;;;;;;4977480;28;20037;-76
2023/08/31 13:31:00;;;;;;;4.43;1.40;;;;;;;;;;4955713;28;20063;-78
2023/08/31 13:33:28;;;;;;;5.60;1.80;;;;;;;;;;4981869;28;20039;-80
2023/08/31 13:35:54;;;;;;;5.40;1.15;;;;;;;;;;4986996;28;20031;-79
2023/08/31 13:38:21;;;;;;;5.05;1.20;;;;;;;;;;4975484;28;20030;-77
2023/08/31 13:40:47;;;;;;;3.00;1.35;;;;;;;;;;4974381;28;20045;-78
2023/08/31 13:43:13;;;;;;;3.97;1.25;;;;;;;;;;4970791;28;20050;-77
2023/08/31 13:45:39;;;;;;;5.95;1.30;;;;;;;;;;4972308;28;20031;-81
2023/08/31 13:48:05;;;;;;;5.55;1.45;;;;;;;;;;4973973;28;20097;-80
2023/08/31 13:50:32;;;;;;;4.72;1.33;;;;;;;;;;4992161;28;20042;-79
2023/08/31 13:52:58;;;;;;;3.58;1.20;;;;;;;;;;4979824;28;20137;-79
2023/08/31 13:55:24;;;;;;;4.13;1.38;;;;;;;;;;4979286;28;20042;-78
2023/08/31 13:57:50;;;;;;;5.25;1.30;;;;;;;;;;4972569;28;20030;-82
2023/08/31 14:00:17;;;;;;;5.22;1.08;;;;;;;;;;4980527;28;20034;-79
2023/08/31 14:02:44;;;;;;;7.57;1.42;;;;;;;;;;4975903;28;20038;-79
2023/08/31 14:05:10;;;;;;;6.80;1.30;;;;;;;;;;4974374;28;20072;-79
2023/08/31 14:07:37;;;;;;;6.45;1.77;;;;;;;;;;4971691;28;20066;-80
2023/08/31 14:10:07;;;;;;;3.92;1.08;;;;;;;;;;4968940;28;21541;-79
2023/08/31 14:12:36;;;;;;;5.55;1.13;;;;;;;;;;4969807;28;20022;-80
2023/08/31 14:15:04;;;;;;;10.30;1.83;;;;;;;;;;4970969;28;20035;-79
2023/08/31 14:17:31;;;;;;;5.55;2.05;;;;;;;;;;4971828;28;20042;-79
2023/08/31 14:19:59;;;;;;;4.97;1.35;;;;;;;;;;4971720;28;20072;-79
2023/08/31 14:22:25;;;;;;;6.35;1.20;;;;;;;;;;4962419;28;20122;-77
2023/08/31 14:24:51;;;;;;;6.07;1.25;;;;;;;;;;4949236;28;20118;-77
2023/08/31 14:27:17;;;;;;;4.63;1.45;;;;;;;;;;4978949;28;20023;-77
2023/08/31 14:29:43;;;;;;;4.50;1.13;;;;;;;;;;4983224;28;20010;-81
2023/08/31 14:32:10;;;;;;;6.38;1.52;;;;;;;;;;4974003;28;20050;-81
2023/08/31 14:34:55;;;;;;;4.53;1.40;;;;;;;;;;4978337;28;20031;-80
2023/08/31 14:37:21;;;;;;;4.38;1.48;;;;;;;;;;4970167;28;20039;-80
2023/08/31 14:39:47;;;;;;;3.17;1.00;;;;;;;;;;4970030;28;20035;-79
2023/08/31 14:42:15;;;;;;;7.10;1.63;;;;;;;;;;4977674;28;20049;-80